Time;durP1;ratioP1;P1;durP2;ratioP2;P2;SDS_P1;SDS_P2;PMS_P1;PMS_P2;Temp;Humidity;BMP_temperature;BMP_pressure;BME280_temperature;BME280_humidity;BME280_pressure;Samples;Min_cycle;Max_cycle;Signal;HPM_P1;HPM_P2
2023/01/30 00:01:39;;;;;;;6.80;5.22;;;17.60;49.10;;;;;;5111780;28;20180;-54
2023/01/30 00:04:04;;;;;;;5.90;5.30;;;17.60;49.20;;;;;;5113027;28;20266;-53
2023/01/30 00:06:30;;;;;;;6.43;5.80;;;17.60;49.20;;;;;;5112697;28;20161;-52
2023/01/30 00:08:55;;;;;;;6.32;5.15;;;17.60;49.20;;;;;;5112675;28;20640;-54
2023/01/30 00:11:21;;;;;;;5.32;4.85;;;17.60;49.20;;;;;;5112388;28;20671;-50
2023/01/30 00:13:47;;;;;;;6.32;5.72;;;17.60;49.20;;;;;;5112813;28;20165;-52
2023/01/30 00:16:12;;;;;;;7.30;6.35;;;17.50;49.20;;;;;;5111948;28;20234;-50
2023/01/30 00:18:38;;;;;;;6.05;5.38;;;17.50;49.20;;;;;;5112329;28;20229;-51
2023/01/30 00:21:05;;;;;;;6.10;5.38;;;17.50;49.20;;;;;;5114480;28;20176;-48
2023/01/30 00:23:32;;;;;;;5.72;5.22;;;17.50;49.20;;;;;;5115599;28;20184;-51
2023/01/30 00:25:58;;;;;;;5.75;5.25;;;17.50;49.20;;;;;;5116540;28;20288;-50
2023/01/30 00:28:24;;;;;;;5.80;5.30;;;17.50;49.20;;;;;;5116145;28;20703;-53
2023/01/30 00:30:53;;;;;;;5.63;5.13;;;17.50;49.20;;;;;;5115418;28;20201;-53
2023/01/30 00:33:19;;;;;;;5.55;5.05;;;17.50;49.20;;;;;;5115851;28;20623;-52
2023/01/30 00:35:48;;;;;;;6.40;5.57;;;17.40;49.20;;;;;;5116307;28;20269;-53
2023/01/30 00:38:14;;;;;;;6.65;5.95;;;17.40;49.20;;;;;;5115433;28;20538;-54
2023/01/30 00:40:40;;;;;;;6.22;5.63;;;17.40;49.20;;;;;;5115859;28;20168;-53
2023/01/30 00:48:33;;;;;;;6.22;5.65;;;17.40;49.20;;;;;;5100349;28;20720;-51
2023/01/30 00:50:59;;;;;;;5.88;5.38;;;17.40;49.30;;;;;;5115046;28;20229;-50
2023/01/30 00:53:24;;;;;;;6.05;5.45;;;17.40;49.30;;;;;;5115706;28;20634;-53
2023/01/30 00:55:53;;;;;;;6.18;5.68;;;17.30;49.20;;;;;;5115609;28;20549;-49
2023/01/30 00:58:19;;;;;;;5.30;4.80;;;17.30;49.30;;;;;;5114907;28;20204;-50
2023/01/30 01:00:45;;;;;;;6.00;5.38;;;17.30;49.30;;;;;;5115580;28;20204;-53
2023/01/30 01:03:10;;;;;;;6.50;5.88;;;17.30;49.30;;;;;;5115583;28;20223;-51
2023/01/30 01:05:36;;;;;;;6.07;5.57;;;17.30;49.30;;;;;;5114440;28;20173;-52
2023/01/30 01:08:01;;;;;;;6.80;5.50;;;17.30;49.30;;;;;;5115583;28;20172;-52
2023/01/30 01:10:27;;;;;;;6.40;5.80;;;17.20;49.30;;;;;;5115006;28;20201;-50
2023/01/30 01:12:52;;;;;;;6.78;5.80;;;17.30;49.30;;;;;;5114888;28;20242;-50
2023/01/30 01:15:18;;;;;;;6.50;5.90;;;17.20;49.30;;;;;;5115042;28;20173;-49
2023/01/30 01:17:44;;;;;;;6.63;5.95;;;17.20;49.30;;;;;;5115233;28;20228;-54
2023/01/30 01:20:10;;;;;;;6.03;5.43;;;17.20;49.30;;;;;;5114616;28;20184;-50
2023/01/30 01:22:36;;;;;;;6.07;5.40;;;17.20;49.30;;;;;;5115005;28;20181;-53
2023/01/30 01:25:01;;;;;;;5.97;5.47;;;17.20;49.40;;;;;;5115066;28;20214;-49
2023/01/30 01:27:28;;;;;;;6.05;5.53;;;17.20;49.40;;;;;;5114386;28;20177;-52
2023/01/30 01:29:53;;;;;;;6.88;5.90;;;17.20;49.40;;;;;;5115247;28;20252;-50
2023/01/30 01:32:20;;;;;;;5.82;5.32;;;17.20;49.40;;;;;;5112804;28;20616;-53
2023/01/30 01:34:45;;;;;;;6.72;6.10;;;17.10;49.40;;;;;;5115197;28;20177;-55
2023/01/30 01:37:11;;;;;;;6.68;5.97;;;17.10;49.40;;;;;;5114984;28;20217;-55
2023/01/30 01:42:22;;;;;;;5.90;5.30;;;17.10;49.40;;;;;;5114644;28;20172;-53
2023/01/30 01:45:12;;;;;;;5.75;5.25;;;17.10;49.50;;;;;;5115371;28;20181;-53
2023/01/30 01:47:41;;;;;;;6.68;6.07;;;17.10;49.50;;;;;;5113725;28;20535;-51
2023/01/30 01:50:30;;;;;;;6.55;5.60;;;17.10;49.50;;;;;;5096841;28;20256;-52
2023/01/30 01:52:56;;;;;;;6.78;5.53;;;17.10;49.50;;;;;;5082706;28;20177;-54
2023/01/30 01:55:22;;;;;;;6.40;5.80;;;17.10;49.50;;;;;;5113664;28;20179;-51
2023/01/30 01:58:00;;;;;;;7.15;5.85;;;17.10;49.50;;;;;;5096265;28;20169;-54
2023/01/30 02:00:26;;;;;;;6.88;6.18;;;17.00;49.40;;;;;;5095212;28;20173;-50
2023/01/30 02:02:55;;;;;;;6.30;5.70;;;17.00;49.60;;;;;;5114576;28;20177;-55
2023/01/30 02:05:21;;;;;;;6.00;5.50;;;17.00;49.60;;;;;;5096464;28;20173;-54
2023/01/30 02:07:53;;;;;;;5.95;5.45;;;17.00;49.50;;;;;;5095597;28;20550;-55
2023/01/30 02:10:24;;;;;;;5.85;5.20;;;17.00;49.50;;;;;;5113979;28;20200;-49
2023/01/30 02:12:49;;;;;;;5.78;5.18;;;17.00;49.60;;;;;;5096308;28;20185;-50
2023/01/30 02:15:16;;;;;;;6.20;5.60;;;17.00;49.60;;;;;;5113668;28;20226;-52
2023/01/30 02:17:41;;;;;;;6.03;5.15;;;17.00;49.60;;;;;;5113780;28;20232;-53
2023/01/30 02:20:18;;;;;;;5.95;5.38;;;17.00;49.60;;;;;;5113978;28;20214;-48
2023/01/30 02:22:56;;;;;;;5.57;5.07;;;17.00;49.60;;;;;;5095261;28;20169;-54
2023/01/30 02:25:31;;;;;;;6.40;5.28;;;16.90;49.60;;;;;;5113786;28;20196;-49
2023/01/30 02:28:10;;;;;;;6.07;5.50;;;16.90;49.60;;;;;;5079883;28;20176;-49
2023/01/30 02:31:02;;;;;;;6.05;5.55;;;16.90;49.60;;;;;;5078970;28;20686;-54
2023/01/30 02:33:30;;;;;;;5.72;5.22;;;16.90;49.60;;;;;;5112679;28;20647;-55
2023/01/30 02:36:20;;;;;;;6.70;5.88;;;16.90;49.60;;;;;;5113063;28;20169;-53
2023/01/30 02:39:04;;;;;;;6.05;5.43;;;17.00;49.70;;;;;;5113762;28;20657;-54
2023/01/30 02:41:52;;;;;;;5.55;5.03;;;16.90;49.60;;;;;;5113489;28;20258;-52
2023/01/30 02:44:32;;;;;;;6.00;5.50;;;16.90;49.70;;;;;;5112322;28;20165;-52
2023/01/30 02:47:02;;;;;;;5.70;5.05;;;16.90;49.70;;;;;;5096992;28;20184;-54
2023/01/30 02:49:44;;;;;;;5.72;5.22;;;16.90;49.70;;;;;;5095318;28;20547;-48
2023/01/30 02:52:11;;;;;;;5.88;5.28;;;16.90;49.70;;;;;;5080632;28;20213;-51
2023/01/30 02:54:36;;;;;;;5.75;5.25;;;16.90;49.70;;;;;;5078253;28;20729;-54
2023/01/30 02:57:02;;;;;;;6.03;4.60;;;16.80;49.70;;;;;;5112920;28;20264;-48
2023/01/30 02:59:36;;;;;;;4.85;4.45;;;16.80;49.80;;;;;;5113438;28;20267;-54
2023/01/30 03:02:07;;;;;;;4.72;4.22;;;16.80;49.80;;;;;;5095564;28;20183;-55
2023/01/30 03:04:39;;;;;;;5.03;4.57;;;16.80;49.70;;;;;;5112464;28;20172;-50
2023/01/30 03:07:27;;;;;;;5.00;4.60;;;16.80;49.80;;;;;;5113209;28;20184;-52
2023/01/30 03:09:57;;;;;;;5.03;4.53;;;16.80;49.80;;;;;;5113333;28;20165;-53
2023/01/30 03:12:29;;;;;;;5.30;4.82;;;16.80;49.80;;;;;;5094260;28;20213;-51
2023/01/30 03:15:01;;;;;;;4.93;4.53;;;16.80;49.90;;;;;;5095149;28;20173;-52
2023/01/30 03:17:26;;;;;;;5.15;4.35;;;16.70;49.90;;;;;;5095043;28;20229;-50
2023/01/30 03:19:52;;;;;;;4.65;4.25;;;16.70;49.90;;;;;;5112648;28;20176;-50
2023/01/30 03:22:19;;;;;;;4.43;4.03;;;16.70;49.90;;;;;;5094844;28;20169;-47
2023/01/30 03:24:44;;;;;;;4.82;4.20;;;16.70;49.90;;;;;;5094831;28;20552;-51
2023/01/30 03:27:11;;;;;;;4.35;4.00;;;16.70;50.00;;;;;;5112957;28;20218;-52
2023/01/30 03:29:36;;;;;;;4.55;4.18;;;16.70;50.00;;;;;;5113001;28;20752;-49
2023/01/30 03:32:02;;;;;;;4.25;3.80;;;16.70;50.00;;;;;;5112397;28;20245;-49
2023/01/30 03:34:27;;;;;;;4.50;4.10;;;16.70;50.00;;;;;;5112778;28;20245;-48
2023/01/30 03:36:53;;;;;;;3.95;3.63;;;16.70;50.00;;;;;;5113027;28;20202;-51
2023/01/30 03:39:18;;;;;;;4.13;3.72;;;16.70;50.10;;;;;;5093868;28;20180;-49
2023/01/30 03:41:44;;;;;;;4.30;3.80;;;16.70;50.10;;;;;;5112971;28;20276;-49
2023/01/30 03:44:10;;;;;;;4.20;3.90;;;16.70;50.10;;;;;;5095121;28;20201;-50
2023/01/30 03:46:35;;;;;;;5.15;3.72;;;16.70;50.10;;;;;;5111928;28;20632;-51
2023/01/30 03:49:01;;;;;;;4.55;4.05;;;16.70;50.10;;;;;;5112953;28;20173;-49
2023/01/30 03:51:26;;;;;;;3.78;3.50;;;16.70;50.10;;;;;;5112451;28;20208;-48
2023/01/30 03:53:52;;;;;;;3.80;3.50;;;16.70;50.10;;;;;;5112434;28;20173;-53
2023/01/30 03:56:17;;;;;;;4.20;3.75;;;16.70;50.10;;;;;;5114719;28;20184;-52
2023/01/30 03:58:43;;;;;;;3.70;3.40;;;16.70;50.10;;;;;;5116943;28;20173;-51
2023/01/30 04:01:08;;;;;;;3.28;3.08;;;16.70;50.10;;;;;;5115993;28;20176;-53
2023/01/30 04:03:34;;;;;;;4.25;3.85;;;16.60;50.10;;;;;;5116444;28;20252;-50
2023/01/30 04:05:59;;;;;;;3.88;3.28;;;16.60;50.20;;;;;;5117018;28;20269;-52
2023/01/30 04:08:25;;;;;;;3.13;2.85;;;16.60;50.20;;;;;;5115905;28;20260;-47
2023/01/30 04:10:50;;;;;;;3.38;3.08;;;16.60;50.20;;;;;;5116801;28;20207;-51
2023/01/30 04:13:16;;;;;;;3.85;3.30;;;16.60;50.20;;;;;;5116827;28;20270;-49
2023/01/30 04:15:41;;;;;;;3.35;3.08;;;16.60;50.20;;;;;;5115882;28;20620;-51
2023/01/30 04:18:07;;;;;;;3.70;3.40;;;16.60;50.20;;;;;;5116351;28;20216;-52
2023/01/30 04:20:32;;;;;;;4.35;3.58;;;16.60;50.30;;;;;;5116350;28;20213;-48
2023/01/30 04:22:58;;;;;;;3.15;2.90;;;16.60;50.30;;;;;;5115720;28;20214;-49
2023/01/30 04:25:23;;;;;;;3.80;3.50;;;16.60;50.30;;;;;;5116326;28;20180;-49
2023/01/30 04:27:49;;;;;;;3.65;3.33;;;16.60;50.30;;;;;;5116418;28;20635;-52
2023/01/30 04:30:15;;;;;;;2.90;2.70;;;16.60;50.30;;;;;;5115445;28;20173;-52
2023/01/30 04:32:40;;;;;;;3.20;3.00;;;16.60;50.30;;;;;;5115875;28;20177;-50
2023/01/30 04:35:06;;;;;;;3.13;2.83;;;16.60;50.40;;;;;;5115763;28;20192;-51
2023/01/30 04:37:32;;;;;;;3.60;3.30;;;16.60;50.30;;;;;;5116336;28;20572;-52
2023/01/30 04:39:57;;;;;;;3.05;2.75;;;16.50;50.30;;;;;;5116129;28;20205;-51
2023/01/30 04:42:23;;;;;;;3.38;3.08;;;16.50;50.40;;;;;;5115042;28;20263;-48
2023/01/30 04:44:48;;;;;;;3.30;3.00;;;16.50;50.40;;;;;;5116153;28;20260;-47
2023/01/30 04:47:14;;;;;;;3.28;2.97;;;16.50;50.40;;;;;;5116056;28;20257;-49
2023/01/30 04:49:39;;;;;;;2.95;2.67;;;16.50;50.40;;;;;;5115012;28;20260;-50
2023/01/30 04:52:05;;;;;;;2.80;2.60;;;16.50;50.40;;;;;;5115934;28;20648;-51
2023/01/30 04:54:30;;;;;;;3.47;2.88;;;16.50;50.40;;;;;;5115561;28;20234;-51
2023/01/30 04:56:56;;;;;;;3.95;2.85;;;16.50;50.40;;;;;;5115178;28;20265;-49
2023/01/30 04:59:22;;;;;;;4.30;2.92;;;16.50;50.50;;;;;;5115610;28;20165;-49
2023/01/30 05:01:47;;;;;;;3.08;2.83;;;16.50;50.40;;;;;;5115583;28;20204;-50
2023/01/30 05:04:13;;;;;;;3.10;2.80;;;16.50;50.40;;;;;;5114775;28;20527;-55
2023/01/30 05:06:39;;;;;;;3.22;2.42;;;16.50;50.50;;;;;;5115015;28;20181;-55
2023/01/30 05:09:04;;;;;;;2.80;2.60;;;16.50;50.50;;;;;;5115612;28;20169;-54
2023/01/30 05:11:31;;;;;;;2.78;2.58;;;16.40;50.50;;;;;;5114594;28;20201;-49
2023/01/30 05:13:56;;;;;;;3.70;2.97;;;16.40;50.50;;;;;;5115462;28;20174;-52
2023/01/30 05:16:22;;;;;;;3.80;2.90;;;16.40;50.50;;;;;;5115303;28;20681;-49
2023/01/30 05:18:48;;;;;;;3.05;2.72;;;16.40;50.60;;;;;;5114485;28;20260;-53
2023/01/30 05:21:16;;;;;;;3.55;3.25;;;16.40;50.60;;;;;;5115396;28;20176;-52
2023/01/30 05:23:41;;;;;;;3.15;2.85;;;16.50;50.60;;;;;;5115140;28;20184;-51
2023/01/30 05:26:07;;;;;;;3.90;2.40;;;16.40;50.60;;;;;;5114608;28;20173;-51
2023/01/30 05:28:33;;;;;;;3.05;2.50;;;16.40;50.70;;;;;;5114978;28;20173;-50
2023/01/30 05:31:06;;;;;;;3.35;2.63;;;16.40;50.60;;;;;;5114920;28;20193;-52
2023/01/30 05:33:32;;;;;;;2.85;2.47;;;16.40;50.60;;;;;;5114184;28;20181;-50
2023/01/30 05:35:58;;;;;;;2.75;2.50;;;16.40;50.70;;;;;;5115110;28;20173;-52
2023/01/30 05:38:24;;;;;;;5.47;2.80;;;16.40;50.70;;;;;;5114406;28;20231;-55
2023/01/30 05:41:03;;;;;;;2.35;2.15;;;16.40;50.70;;;;;;5114814;28;20169;-55
2023/01/30 05:43:29;;;;;;;3.58;2.75;;;16.40;50.70;;;;;;5114444;28;20181;-50
2023/01/30 05:45:55;;;;;;;2.40;2.20;;;16.30;50.70;;;;;;5114347;28;20632;-54
2023/01/30 05:48:21;;;;;;;3.20;2.70;;;16.40;50.80;;;;;;5114399;28;20643;-53
2023/01/30 05:50:48;;;;;;;2.40;2.20;;;16.30;50.80;;;;;;5114833;28;20208;-48
2023/01/30 05:53:14;;;;;;;3.47;2.40;;;16.30;50.80;;;;;;5113956;28;20184;-48
2023/01/30 05:55:39;;;;;;;2.83;2.20;;;16.30;50.90;;;;;;5114292;28;20173;-50
2023/01/30 05:58:05;;;;;;;2.30;2.10;;;16.30;50.90;;;;;;5114505;28;20174;-49
2023/01/30 06:00:30;;;;;;;2.38;2.17;;;16.30;50.90;;;;;;5113690;28;20165;-52
2023/01/30 06:02:56;;;;;;;2.40;2.10;;;16.30;50.90;;;;;;5114593;28;20222;-48
2023/01/30 06:05:22;;;;;;;2.47;1.92;;;16.30;50.90;;;;;;5114252;28;20173;-48
2023/01/30 06:07:47;;;;;;;3.15;2.30;;;16.30;50.90;;;;;;5113735;28;20234;-49
2023/01/30 06:10:13;;;;;;;4.30;2.65;;;16.30;50.90;;;;;;5114290;28;20557;-50
2023/01/30 06:12:38;;;;;;;2.65;2.13;;;16.30;50.90;;;;;;5114045;28;20643;-53
2023/01/30 06:15:04;;;;;;;2.75;2.00;;;16.30;50.90;;;;;;5113782;28;20169;-51
2023/01/30 06:17:30;;;;;;;2.33;1.83;;;16.30;51.00;;;;;;5113787;28;20221;-54
2023/01/30 06:19:55;;;;;;;3.05;2.28;;;16.30;51.00;;;;;;5113593;28;20221;-54
2023/01/30 06:22:21;;;;;;;3.45;1.90;;;16.30;51.00;;;;;;5113170;28;20206;-48
2023/01/30 06:24:46;;;;;;;3.67;2.38;;;16.30;51.00;;;;;;5114136;28;20246;-49
2023/01/30 06:27:13;;;;;;;4.53;2.15;;;16.30;51.00;;;;;;5113899;28;20515;-49
2023/01/30 06:29:38;;;;;;;2.47;2.00;;;16.20;51.00;;;;;;5112673;28;20185;-48
2023/01/30 06:32:04;;;;;;;3.25;2.30;;;16.20;51.00;;;;;;5113994;28;20209;-49
2023/01/30 06:34:30;;;;;;;2.58;2.35;;;16.20;51.00;;;;;;5113537;28;20169;-52
2023/01/30 06:36:55;;;;;;;3.95;2.40;;;16.20;51.00;;;;;;5113280;28;20185;-49
2023/01/30 06:39:21;;;;;;;4.28;2.30;;;16.20;51.00;;;;;;5113446;28;20170;-53
2023/01/30 06:41:46;;;;;;;3.25;2.10;;;16.20;51.00;;;;;;5113071;28;20214;-52
2023/01/30 06:44:12;;;;;;;2.38;1.90;;;16.20;51.00;;;;;;5113956;28;20703;-54
2023/01/30 06:46:37;;;;;;;3.92;2.28;;;16.20;51.00;;;;;;5113564;28;20218;-53
2023/01/30 06:49:03;;;;;;;3.28;2.25;;;16.20;51.00;;;;;;5113129;28;20199;-49
2023/01/30 06:51:29;;;;;;;2.40;1.70;;;16.20;51.10;;;;;;5113192;28;20260;-49
2023/01/30 06:53:54;;;;;;;3.15;2.25;;;16.20;51.10;;;;;;5113646;28;20584;-51
2023/01/30 06:56:20;;;;;;;4.22;1.98;;;16.10;51.00;;;;;;5112439;28;20647;-48
2023/01/30 06:58:46;;;;;;;2.70;1.83;;;16.10;51.00;;;;;;5113687;28;20225;-54
2023/01/30 07:01:11;;;;;;;3.08;1.98;;;16.10;51.00;;;;;;5113743;28;20173;-50
2023/01/30 07:03:37;;;;;;;3.17;1.95;;;16.20;51.40;;;;;;5112626;28;20172;-51
2023/01/30 07:06:02;;;;;;;2.85;1.92;;;16.20;50.90;;;;;;5113358;28;20172;-50
2023/01/30 07:08:28;;;;;;;2.85;2.00;;;16.30;51.00;;;;;;5113093;28;20176;-48
2023/01/30 07:10:53;;;;;;;2.88;1.55;;;16.30;50.90;;;;;;5112466;28;20201;-50
2023/01/30 07:13:19;;;;;;;3.15;1.70;;;16.40;50.90;;;;;;5113142;28;20180;-51
2023/01/30 07:15:45;;;;;;;2.05;1.70;;;16.40;50.80;;;;;;5113509;28;20573;-51
2023/01/30 07:18:11;;;;;;;3.03;2.00;;;16.50;50.80;;;;;;5112264;28;20744;-49
2023/01/30 07:20:36;;;;;;;3.03;1.95;;;16.60;50.70;;;;;;5112966;28;20181;-54
2023/01/30 07:23:02;;;;;;;4.40;2.08;;;16.70;50.60;;;;;;5113134;28;20173;-47
2023/01/30 07:25:28;;;;;;;3.03;1.98;;;16.80;50.40;;;;;;5112156;28;20171;-51
2023/01/30 07:27:55;;;;;;;2.47;1.70;;;16.90;50.30;;;;;;5113503;28;20218;-52
2023/01/30 07:30:20;;;;;;;2.72;2.00;;;17.00;50.10;;;;;;5115139;28;20173;-53
2023/01/30 07:32:54;;;;;;;2.90;1.58;;;17.10;50.00;;;;;;5116665;28;20177;-50
2023/01/30 07:35:21;;;;;;;3.60;1.98;;;17.10;49.90;;;;;;5117084;28;20222;-53
2023/01/30 07:37:47;;;;;;;3.35;1.83;;;17.20;49.80;;;;;;5117337;28;20173;-50
2023/01/30 07:40:13;;;;;;;3.78;1.85;;;17.20;49.70;;;;;;5116464;28;20635;-51
2023/01/30 07:42:38;;;;;;;2.60;1.70;;;17.30;49.70;;;;;;5117090;28;20173;-54
2023/01/30 07:45:04;;;;;;;2.85;1.80;;;17.30;49.60;;;;;;5116587;28;20169;-50
2023/01/30 07:47:30;;;;;;;3.33;1.38;;;17.40;50.20;;;;;;5116933;28;20173;-50
2023/01/30 07:49:56;;;;;;;1.75;1.30;;;17.40;49.50;;;;;;5116978;28;20635;-47
2023/01/30 07:52:21;;;;;;;3.15;1.73;;;17.50;49.50;;;;;;5116147;28;20236;-48
2023/01/30 07:54:47;;;;;;;2.42;2.13;;;17.50;49.40;;;;;;5117177;28;20619;-50
2023/01/30 07:57:12;;;;;;;4.53;1.70;;;17.40;49.40;;;;;;5116873;28;20173;-48
2023/01/30 07:59:38;;;;;;;3.05;1.77;;;17.40;49.40;;;;;;5115695;28;20184;-49
2023/01/30 08:02:03;;;;;;;3.33;1.50;;;17.30;49.40;;;;;;5116794;28;20181;-49
2023/01/30 08:04:29;;;;;;;3.63;1.52;;;17.30;49.60;;;;;;5116490;28;20173;-49
2023/01/30 08:06:54;;;;;;;2.17;1.52;;;17.20;49.60;;;;;;5116108;28;20268;-49
2023/01/30 08:09:20;;;;;;;2.90;1.50;;;17.10;49.60;;;;;;5116304;28;20256;-51
2023/01/30 08:11:45;;;;;;;3.50;1.50;;;17.10;49.80;;;;;;5116716;28;20678;-49
2023/01/30 08:14:11;;;;;;;3.88;1.58;;;17.00;49.70;;;;;;5115912;28;20226;-52
2023/01/30 08:16:37;;;;;;;3.10;1.42;;;17.00;49.80;;;;;;5116186;28;20181;-54
2023/01/30 08:19:04;;;;;;;4.40;1.92;;;17.00;49.90;;;;;;5116473;28;20224;-51
2023/01/30 08:21:30;;;;;;;3.38;1.70;;;17.00;49.90;;;;;;5115411;28;20177;-52
2023/01/30 08:23:55;;;;;;;3.35;2.08;;;16.90;49.90;;;;;;5116286;28;20177;-47
2023/01/30 08:26:21;;;;;;;4.00;1.60;;;16.90;50.00;;;;;;5115991;28;20173;-53
2023/01/30 08:28:46;;;;;;;4.82;1.95;;;16.90;50.00;;;;;;5115528;28;20178;-65
2023/01/30 08:31:12;;;;;;;3.83;1.67;;;16.90;50.10;;;;;;5117495;28;20212;-62
2023/01/30 08:33:38;;;;;;;4.68;2.55;;;16.90;50.00;;;;;;5116285;28;20225;-65
2023/01/30 08:36:04;;;;;;;4.88;2.03;;;16.90;50.50;;;;;;5115655;28;20205;-70
2023/01/30 08:38:29;;;;;;;4.47;1.75;;;16.90;50.50;;;;;;5115766;28;20196;-64
2023/01/30 08:40:56;;;;;;;4.68;1.85;;;16.90;50.80;;;;;;5115644;28;20615;-66
2023/01/30 08:43:22;;;;;;;5.13;2.22;;;16.90;51.00;;;;;;5115039;28;20256;-68
2023/01/30 08:45:48;;;;;;;3.78;2.03;;;16.90;50.80;;;;;;5116167;28;20262;-68
2023/01/30 08:48:13;;;;;;;7.38;2.22;;;16.90;50.90;;;;;;5115999;28;20169;-65
2023/01/30 08:50:39;;;;;;;5.38;2.10;;;16.90;51.10;;;;;;5115043;28;20205;-61
2023/01/30 08:53:05;;;;;;;3.75;1.70;;;16.90;51.10;;;;;;5115496;28;20238;-62
2023/01/30 08:55:31;;;;;;;4.40;2.05;;;16.90;51.10;;;;;;5114779;28;20696;-62
2023/01/30 08:57:56;;;;;;;4.85;1.90;;;16.80;50.90;;;;;;5115671;28;20177;-62
2023/01/30 09:00:22;;;;;;;6.85;2.33;;;16.90;50.90;;;;;;5115494;28;20165;-63
2023/01/30 09:02:47;;;;;;;4.13;1.92;;;17.00;50.80;;;;;;5114204;28;20177;-63
2023/01/30 09:05:13;;;;;;;6.35;2.20;;;17.00;50.70;;;;;;5115631;28;20651;-63
2023/01/30 09:07:38;;;;;;;4.32;2.00;;;17.00;50.50;;;;;;5115245;28;20184;-64
2023/01/30 09:10:04;;;;;;;4.03;2.15;;;17.00;50.50;;;;;;5115107;28;20165;-63
2023/01/30 09:12:30;;;;;;;6.28;1.90;;;17.00;51.30;;;;;;5115327;28;20208;-63
2023/01/30 09:14:57;;;;;;;5.55;2.38;;;17.00;50.70;;;;;;5115640;28;20169;-63
2023/01/30 09:17:23;;;;;;;4.85;1.95;;;16.90;50.70;;;;;;5114300;28;20762;-63
2023/01/30 09:19:48;;;;;;;3.83;1.98;;;16.80;50.60;;;;;;5115591;28;20173;-63
2023/01/30 09:22:15;;;;;;;2.97;1.95;;;16.70;50.60;;;;;;5115449;28;20196;-63
2023/01/30 09:24:41;;;;;;;4.78;2.05;;;16.80;50.60;;;;;;5113936;28;20188;-63
2023/01/30 09:27:06;;;;;;;4.50;2.00;;;16.70;50.60;;;;;;5115190;28;20169;-63
2023/01/30 09:29:32;;;;;;;6.70;2.33;;;16.70;50.70;;;;;;5114999;28;20184;-63
2023/01/30 09:31:57;;;;;;;4.72;2.10;;;16.70;50.60;;;;;;5114306;28;20216;-64
2023/01/30 09:34:27;;;;;;;6.22;2.65;;;16.80;50.60;;;;;;5114905;28;20169;-63
2023/01/30 09:37:03;;;;;;;2.95;1.80;;;16.80;50.50;;;;;;5115223;28;20259;-63
2023/01/30 09:39:28;;;;;;;4.45;2.05;;;16.80;50.40;;;;;;5114217;28;20172;-63
2023/01/30 09:42:31;;;;;;;5.72;2.20;;;16.80;50.40;;;;;;5115020;28;20180;-63
2023/01/30 09:45:38;;;;;;;3.97;1.83;;;16.80;50.40;;;;;;5114083;28;20169;-63
2023/01/30 09:48:14;;;;;;;5.53;2.53;;;16.70;50.40;;;;;;5099595;28;20199;-63
2023/01/30 09:50:54;;;;;;;5.35;2.10;;;16.70;50.50;;;;;;5096317;28;20205;-63
2023/01/30 09:53:45;;;;;;;5.43;2.10;;;16.70;50.50;;;;;;5112624;28;20169;-63
2023/01/30 09:56:11;;;;;;;6.93;2.70;;;16.70;50.50;;;;;;5081845;28;20185;-63
2023/01/30 09:58:43;;;;;;;4.30;1.95;;;16.70;50.40;;;;;;5114042;28;20169;-63
2023/01/30 10:01:15;;;;;;;3.65;1.98;;;16.70;50.40;;;;;;5079727;28;20545;-65
2023/01/30 10:03:49;;;;;;;5.15;2.30;;;16.70;50.40;;;;;;5096599;28;20246;-64
2023/01/30 10:06:15;;;;;;;3.35;1.90;;;16.80;50.30;;;;;;5096276;28;20173;-65
2023/01/30 10:08:59;;;;;;;4.60;2.17;;;16.80;50.30;;;;;;5094188;28;20177;-65
2023/01/30 10:11:32;;;;;;;5.45;2.15;;;16.80;50.30;;;;;;5114018;28;20291;-64
2023/01/30 10:14:19;;;;;;;5.85;2.05;;;16.80;50.20;;;;;;5113583;28;20184;-64
2023/01/30 10:17:00;;;;;;;4.90;2.30;;;16.70;50.30;;;;;;5114328;28;20191;-65
2023/01/30 10:19:43;;;;;;;4.60;2.13;;;16.70;50.40;;;;;;5097152;28;20200;-64
2023/01/30 10:22:15;;;;;;;6.93;2.20;;;16.70;50.40;;;;;;5114047;28;20229;-64
2023/01/30 10:24:59;;;;;;;7.03;2.13;;;16.70;50.50;;;;;;5112747;28;20632;-64
2023/01/30 10:27:25;;;;;;;2.70;1.77;;;16.70;50.60;;;;;;5112789;28;20211;-64
2023/01/30 10:29:53;;;;;;;3.38;2.05;;;16.70;50.60;;;;;;5095890;28;20197;-64
2023/01/30 10:32:24;;;;;;;5.47;2.15;;;16.70;50.60;;;;;;5095429;28;20216;-65
2023/01/30 10:34:51;;;;;;;5.32;2.03;;;16.70;50.60;;;;;;5095881;28;20204;-64
2023/01/30 10:37:28;;;;;;;5.78;2.30;;;16.70;50.50;;;;;;5078597;28;20181;-64
2023/01/30 10:40:13;;;;;;;6.40;2.15;;;16.70;50.50;;;;;;5113860;28;20584;-64
2023/01/30 10:43:22;;;;;;;4.47;2.13;;;16.70;50.50;;;;;;5094552;28;20173;-64
2023/01/30 10:46:22;;;;;;;5.97;2.05;;;16.70;50.40;;;;;;5100749;28;20636;-63
2023/01/30 10:49:10;;;;;;;4.28;2.08;;;16.80;50.40;;;;;;5081084;28;20260;-64
2023/01/30 10:51:41;;;;;;;6.10;2.53;;;16.80;50.40;;;;;;5095039;28;20227;-64
2023/01/30 10:54:15;;;;;;;6.50;2.38;;;16.80;50.50;;;;;;5114390;28;20173;-63
2023/01/30 10:56:47;;;;;;;5.20;2.38;;;16.80;50.50;;;;;;5094090;28;20671;-65
2023/01/30 10:59:22;;;;;;;5.50;2.20;;;16.80;50.40;;;;;;5095515;28;20542;-64
2023/01/30 11:01:57;;;;;;;6.03;2.33;;;16.80;50.40;;;;;;5113427;28;20303;-64
2023/01/30 11:04:31;;;;;;;7.38;2.08;;;16.90;50.40;;;;;;5112770;28;20688;-66
2023/01/30 11:06:57;;;;;;;5.53;2.10;;;16.80;50.30;;;;;;5095276;28;20184;-65
2023/01/30 11:09:22;;;;;;;3.92;1.73;;;16.90;50.30;;;;;;5062164;28;20239;-64
2023/01/30 11:11:52;;;;;;;4.50;1.98;;;16.90;50.30;;;;;;5093074;28;20242;-66
2023/01/30 11:14:18;;;;;;;3.72;1.98;;;16.90;50.30;;;;;;5092713;28;20165;-65
2023/01/30 11:16:53;;;;;;;6.20;2.05;;;16.90;50.30;;;;;;5092238;28;20182;-66
2023/01/30 11:19:24;;;;;;;5.85;1.90;;;16.90;50.40;;;;;;5075880;28;20224;-65
2023/01/30 11:21:53;;;;;;;7.15;2.03;;;16.90;50.50;;;;;;5074969;28;20173;-63
2023/01/30 11:24:27;;;;;;;5.93;2.58;;;16.90;50.50;;;;;;5073864;28;20663;-67
2023/01/30 11:26:52;;;;;;;6.20;2.15;;;16.90;50.50;;;;;;5074902;28;20631;-63
2023/01/30 11:29:27;;;;;;;4.57;2.22;;;17.00;50.60;;;;;;5057830;28;20251;-64
2023/01/30 11:31:53;;;;;;;7.43;2.30;;;17.00;50.50;;;;;;5092119;28;20244;-64
2023/01/30 11:34:19;;;;;;;7.18;2.25;;;17.10;50.30;;;;;;5092709;28;20342;-63
2023/01/30 11:36:48;;;;;;;4.35;2.30;;;17.10;50.30;;;;;;5092626;28;20770;-64
2023/01/30 11:39:17;;;;;;;3.38;2.13;;;17.10;50.30;;;;;;5074786;28;20275;-63
2023/01/30 11:41:52;;;;;;;6.63;1.75;;;17.10;50.30;;;;;;5092825;28;20166;-65
2023/01/30 11:44:17;;;;;;;4.63;2.15;;;17.00;50.40;;;;;;5075610;28;20184;-67
2023/01/30 11:46:43;;;;;;;4.65;2.03;;;17.10;50.50;;;;;;5074578;28;20641;-62
2023/01/30 11:49:15;;;;;;;6.95;2.33;;;17.10;50.50;;;;;;5074520;28;20639;-63
2023/01/30 11:51:42;;;;;;;5.30;2.38;;;17.10;50.50;;;;;;5091476;28;20205;-65
2023/01/30 11:54:15;;;;;;;8.40;2.72;;;17.10;50.40;;;;;;5074949;28;20185;-62
2023/01/30 11:56:46;;;;;;;6.90;2.33;;;17.20;50.60;;;;;;5092648;28;20589;-61
2023/01/30 11:59:30;;;;;;;7.55;2.63;;;17.20;50.10;;;;;;5058376;28;20258;-63
2023/01/30 12:02:25;;;;;;;6.72;2.25;;;17.10;50.20;;;;;;5075917;28;20638;-61
2023/01/30 12:04:54;;;;;;;8.25;2.85;;;17.10;51.20;;;;;;5072035;28;20193;-62
2023/01/30 12:07:21;;;;;;;9.38;1.92;;;17.10;50.50;;;;;;5073820;28;20186;-62
2023/01/30 12:09:49;;;;;;;8.68;2.65;;;17.10;50.60;;;;;;5092711;28;20178;-61
2023/01/30 12:12:28;;;;;;;9.25;2.72;;;17.10;50.50;;;;;;5074859;28;20296;-61
2023/01/30 12:15:18;;;;;;;7.80;2.33;;;17.00;50.40;;;;;;5074964;28;20178;-63
2023/01/30 12:17:55;;;;;;;7.20;2.72;;;17.00;50.40;;;;;;5076945;28;20234;-64
2023/01/30 12:21:01;;;;;;;7.13;2.28;;;17.00;50.40;;;;;;5095046;28;20580;-63
2023/01/30 12:23:38;;;;;;;6.43;2.20;;;17.00;50.30;;;;;;5095547;28;20205;-66
2023/01/30 12:26:04;;;;;;;7.18;2.42;;;16.90;50.40;;;;;;5062218;28;20174;-63
2023/01/30 12:28:48;;;;;;;7.70;2.33;;;16.80;50.40;;;;;;5094908;28;20231;-64
2023/01/30 12:31:47;;;;;;;6.00;2.13;;;16.80;50.40;;;;;;5095983;28;20209;-64
2023/01/30 12:34:12;;;;;;;7.68;2.20;;;16.80;50.40;;;;;;5024105;28;20224;-64
2023/01/30 12:36:54;;;;;;;5.15;2.28;;;16.80;50.30;;;;;;5095571;28;20676;-64
2023/01/30 12:39:49;;;;;;;9.48;2.40;;;16.80;50.30;;;;;;5062221;28;20256;-63
2023/01/30 12:42:52;;;;;;;5.70;2.28;;;16.70;50.30;;;;;;5062881;28;20186;-64
2023/01/30 12:45:24;;;;;;;7.05;2.30;;;16.70;50.30;;;;;;5095496;28;20174;-64
2023/01/30 12:47:53;;;;;;;5.85;2.38;;;16.70;50.30;;;;;;5076919;28;20173;-63
2023/01/30 12:50:55;;;;;;;6.32;2.80;;;16.70;50.30;;;;;;5095422;28;20169;-63
2023/01/30 12:53:31;;;;;;;9.60;2.78;;;16.60;50.20;;;;;;5077275;28;20189;-63
2023/01/30 12:56:31;;;;;;;8.90;2.53;;;16.60;50.20;;;;;;5076998;28;20176;-64
2023/01/30 12:59:12;;;;;;;5.82;2.67;;;16.60;50.10;;;;;;5077337;28;20264;-64
2023/01/30 13:01:43;;;;;;;6.20;2.85;;;16.60;50.10;;;;;;5061120;28;20197;-65
2023/01/30 13:04:43;;;;;;;7.05;2.92;;;16.60;50.20;;;;;;5077509;28;20170;-65
2023/01/30 13:07:36;;;;;;;7.90;2.58;;;16.50;50.20;;;;;;5095252;28;20173;-64
2023/01/30 13:10:19;;;;;;;5.88;2.42;;;16.60;50.20;;;;;;5094718;28;20181;-65